LEBZ/BJZ METAR and TAF weather

Enter ICAO airport designator
Station Type Date Time Source
LEBZ METAR 2019/10/14 19:00 UTC NOAA

LEBZ 141900Z 27008KT CAVOK 14/10 Q1018


Station Type Date Time Source
LEBZ Decoded METAR 2019/10/14 19:00 UTC NOAA

Badajoz / Talavera La Real, Spain (LEBZ) 38-53N 006-49W 192M
Oct 14, 2019 - 03:00 PM EDT / 2019.10.14 1900 UTC
Wind: from the W (270 degrees) at 9 MPH (8 KT):0
Visibility: greater than 7 mile(s):0
Temperature: 57 F (14 C)
Dew Point: 50 F (10 C)
Relative Humidity: 76%
Pressure (altimeter): 30.06 in. Hg (1018 hPa)
ob: LEBZ 141900Z 27008KT CAVOK 14/10 Q1018
cycle: 19

Station Type Date Time Source
LEBZ TAF 2019/10/14 18:27 UTC NOAA

TAF LEBZ 141700Z 1418/1518 28006KT 9999 FEW035 TX20/1515Z TN07/1506Z PROB30
TEMPO 1504/1508 4000 BR

Example: see airport list